createdAt,value
2023-05-05T00:02:22.121Z,100015.66
2023-05-05T00:04:50.017Z,100018.59
2023-05-05T00:07:18.161Z,100016.91
2023-05-05T00:09:46.260Z,100015.84
2023-05-05T00:12:14.138Z,100010.09
2023-05-05T00:14:42.351Z,100020.41
2023-05-05T00:17:10.555Z,100013.09
2023-05-05T00:19:38.543Z,100012.06
2023-05-05T00:22:07.117Z,100005.53
2023-05-05T00:24:35.311Z,100001.72
2023-05-05T00:27:03.533Z,100009.13
2023-05-05T00:29:31.756Z,99995.69
2023-05-05T00:31:59.828Z,99992.72
2023-05-05T00:34:27.696Z,99986.16
2023-05-05T00:36:55.935Z,99990.31
2023-05-05T00:39:24.660Z,99981.72
2023-05-05T00:41:52.890Z,99991.97
2023-05-05T00:44:40.328Z,99988.78
2023-05-05T00:47:12.929Z,99992.66
2023-05-05T00:49:41.289Z,99995.53
2023-05-05T00:52:10.224Z,99991.84
2023-05-05T00:54:38.971Z,99995.97
2023-05-05T00:57:08.066Z,99990.34
2023-05-05T00:59:36.960Z,99995.94
2023-05-05T01:02:04.971Z,99991.69
2023-05-05T01:04:33.105Z,99987.16
2023-05-05T01:07:13.457Z,99988.13
2023-05-05T01:10:22.358Z,99991.53
2023-05-05T01:13:09.088Z,99983.59
2023-05-05T01:16:03.230Z,99990.75
2023-05-05T01:18:49.943Z,99985.63
2023-05-05T01:21:29.731Z,99985.28
2023-05-05T01:24:25.661Z,99992.72
2023-05-05T01:27:32.061Z,99986.63
2023-05-05T01:30:09.215Z,99983.72
2023-05-05T01:32:49.488Z,99984.97
2023-05-05T01:35:37.864Z,99976.81
2023-05-05T01:38:16.753Z,99981.69
2023-05-05T01:40:50.086Z,99973.13
2023-05-05T01:43:23.599Z,99971.22
2023-05-05T01:45:53.806Z,99975.03
2023-05-05T01:48:24.772Z,99969.88
2023-05-05T01:50:54.167Z,99964.91
2023-05-05T01:53:26.073Z,99978.06
2023-05-05T01:55:56.616Z,99972.44
2023-05-05T01:58:27.179Z,99972.78
2023-05-05T02:00:58.374Z,99968.66
2023-05-05T02:03:27.698Z,99969.97
2023-05-05T02:05:57.655Z,99969.31
2023-05-05T02:08:27.044Z,99970.78
2023-05-05T02:10:56.072Z,99978.41
2023-05-05T02:13:26.371Z,99985.59
2023-05-05T02:15:56.204Z,99975.97
2023-05-05T02:18:27.265Z,99971.41
2023-05-05T02:20:55.373Z,99977.66
2023-05-05T02:23:23.808Z,99965.50
2023-05-05T02:25:57.945Z,99968.78
2023-05-05T02:29:20.006Z,99968.59
2023-05-05T02:31:58.590Z,99972.16
2023-05-05T02:34:32.151Z,99977.44
2023-05-05T02:37:07.676Z,99975.00
2023-05-05T02:39:58.763Z,99971.91
2023-05-05T02:42:40.309Z,99973.00
2023-05-05T02:45:17.752Z,99975.19
2023-05-05T02:47:49.313Z,99975.91
2023-05-05T02:50:17.496Z,99978.28
2023-05-05T02:53:02.710Z,99979.41
2023-05-05T02:55:38.405Z,99984.78
2023-05-05T02:58:17.426Z,99976.78
2023-05-05T03:01:18.158Z,99970.75
2023-05-05T03:04:08.125Z,99973.41
2023-05-05T03:06:43.684Z,99965.09
2023-05-05T03:09:28.315Z,99971.31
2023-05-05T03:12:07.173Z,99970.78
2023-05-05T03:14:52.009Z,99968.44
2023-05-05T03:17:22.336Z,99979.13
2023-05-05T03:19:52.097Z,99975.84
2023-05-05T03:22:20.830Z,99980.19
2023-05-05T03:24:52.292Z,99976.38
2023-05-05T03:27:24.533Z,99987.72
2023-05-05T03:29:53.104Z,99985.47
2023-05-05T03:32:23.867Z,99981.78
2023-05-05T03:34:55.657Z,99980.72
2023-05-05T03:37:29.288Z,99984.22
2023-05-05T03:39:58.564Z,99985.88
2023-05-05T03:42:27.175Z,99990.75
2023-05-05T03:44:55.659Z,99991.16
2023-05-05T03:47:25.029Z,99986.63
2023-05-05T03:49:54.812Z,99983.13
2023-05-05T03:52:22.832Z,99980.47
2023-05-05T03:54:51.590Z,99983.63
2023-05-05T03:57:19.774Z,99981.91
2023-05-05T03:59:47.680Z,99976.06
2023-05-05T04:02:18.461Z,99975.41
2023-05-05T04:04:55.102Z,99979.06
2023-05-05T04:07:23.993Z,99979.94
2023-05-05T04:09:52.159Z,99978.91
2023-05-05T04:12:20.118Z,99971.03
2023-05-05T04:14:48.135Z,99971.41
2023-05-05T04:17:16.426Z,99973.25
2023-05-05T04:19:45.440Z,99967.88
2023-05-05T04:22:14.419Z,99964.75
2023-05-05T04:24:42.586Z,99962.72
2023-05-05T04:27:11.021Z,99960.22
2023-05-05T04:29:39.275Z,99975.06
2023-05-05T04:32:07.405Z,99969.16
2023-05-05T04:34:36.188Z,99975.53
2023-05-05T04:37:04.553Z,99982.41
2023-05-05T04:39:32.881Z,99980.59
2023-05-05T04:42:02.312Z,99980.84
2023-05-05T04:44:30.877Z,99990.94
2023-05-05T04:47:00.988Z,99990.53
2023-05-05T04:49:32.674Z,99986.75
2023-05-05T04:52:02.526Z,99984.56
2023-05-05T04:54:30.506Z,99978.31
2023-05-05T04:56:59.487Z,99988.47
2023-05-05T04:59:27.540Z,99983.25
2023-05-05T05:01:56.133Z,99989.63
2023-05-05T05:04:26.119Z,99986.34
2023-05-05T05:06:54.923Z,99979.50
2023-05-05T05:09:24.409Z,99984.03
2023-05-05T05:11:52.401Z,99974.25
2023-05-05T05:14:22.050Z,99983.53
2023-05-05T05:16:53.498Z,99978.47
2023-05-05T05:19:23.517Z,99980.72
2023-05-05T05:21:51.914Z,99976.59
2023-05-05T05:24:20.231Z,99973.69
2023-05-05T05:26:49.095Z,99967.91
2023-05-05T05:29:17.282Z,99968.31
2023-05-05T05:31:45.677Z,99968.38
2023-05-05T05:34:14.216Z,99967.25
2023-05-05T05:36:43.348Z,99962.09
2023-05-05T05:39:11.847Z,99967.13
2023-05-05T05:41:40.082Z,99967.13
2023-05-05T05:44:08.280Z,99969.91
2023-05-05T05:46:36.447Z,99966.91
2023-05-05T05:49:04.688Z,99967.28
2023-05-05T05:51:32.995Z,99963.50
2023-05-05T05:54:03.796Z,99963.03
2023-05-05T05:56:32.124Z,99963.88
2023-05-05T05:59:01.485Z,99964.09
2023-05-05T06:01:29.680Z,99955.44
2023-05-05T06:03:58.000Z,99944.22
2023-05-05T06:06:26.397Z,99958.47
2023-05-05T06:08:54.521Z,99952.97
2023-05-05T06:11:22.954Z,99948.06
2023-05-05T06:13:50.986Z,99943.34
2023-05-05T06:16:19.124Z,99936.44
2023-05-05T06:18:48.848Z,99927.50
2023-05-05T06:21:20.722Z,99929.22
2023-05-05T06:23:48.795Z,99918.84
2023-05-05T06:26:17.567Z,99922.81
2023-05-05T06:28:45.774Z,99912.66
2023-05-05T06:31:15.409Z,99916.44
2023-05-05T06:33:43.716Z,99915.16
2023-05-05T06:36:11.912Z,99917.03
2023-05-05T06:38:40.109Z,99914.56
2023-05-05T06:41:08.034Z,99910.72
2023-05-05T06:43:36.277Z,99909.66
2023-05-05T06:46:09.230Z,99922.63
2023-05-05T06:48:37.384Z,99926.47
2023-05-05T06:51:05.432Z,99923.22
2023-05-05T06:53:33.589Z,99928.69
2023-05-05T06:56:01.703Z,99924.59
2023-05-05T06:58:29.592Z,99932.25
2023-05-05T07:00:57.690Z,99930.94
2023-05-05T07:03:27.352Z,99914.78
2023-05-05T07:05:55.758Z,99914.97
2023-05-05T07:08:25.212Z,99912.53
2023-05-05T07:10:53.495Z,99906.66
2023-05-05T07:13:22.898Z,99909.69
2023-05-05T07:15:52.588Z,99917.59
2023-05-05T07:18:21.501Z,99900.78
2023-05-05T07:20:49.562Z,99909.22
2023-05-05T07:23:18.362Z,99906.72
2023-05-05T07:25:46.426Z,99902.38
2023-05-05T07:28:15.484Z,99899.50
2023-05-05T07:30:43.679Z,99911.16
2023-05-05T07:33:11.851Z,99903.84
2023-05-05T07:35:40.406Z,99899.50
2023-05-05T07:38:10.171Z,99907.88
2023-05-05T07:40:38.869Z,99906.97
2023-05-05T07:43:07.070Z,99908.88
2023-05-05T07:45:35.053Z,99908.03
2023-05-05T07:48:03.289Z,99898.19
2023-05-05T07:50:31.403Z,99891.13
2023-05-05T07:53:10.658Z,99904.22
2023-05-05T07:55:42.764Z,99899.66
2023-05-05T07:58:11.284Z,99899.81
2023-05-05T08:00:39.942Z,99902.59
2023-05-05T08:03:11.365Z,99901.97
2023-05-05T08:05:40.820Z,99895.22
2023-05-05T08:08:08.875Z,99901.50
2023-05-05T08:10:37.178Z,99893.38
2023-05-05T08:13:05.396Z,99901.38
2023-05-05T08:15:33.707Z,99891.03
2023-05-05T08:18:01.987Z,99883.22
2023-05-05T08:20:31.554Z,99896.28
2023-05-05T08:22:59.757Z,99897.41
2023-05-05T08:25:27.983Z,99912.53
2023-05-05T08:27:56.314Z,99907.88
2023-05-05T08:30:24.459Z,99895.84
2023-05-05T08:32:52.732Z,99897.97
2023-05-05T08:35:21.439Z,99901.50
2023-05-05T08:37:51.890Z,99908.16
2023-05-05T08:40:25.687Z,99905.22
2023-05-05T08:42:54.173Z,99897.56
2023-05-05T08:45:22.287Z,99896.09
2023-05-05T08:47:50.696Z,99886.28
2023-05-05T08:50:21.654Z,99903.66
2023-05-05T08:53:02.715Z,99883.97
2023-05-05T08:55:39.088Z,99894.78
2023-05-05T08:58:08.775Z,99894.75
2023-05-05T09:00:37.182Z,99895.84
2023-05-05T09:03:07.679Z,99904.19
2023-05-05T09:05:36.776Z,99892.84
2023-05-05T09:08:11.030Z,99899.41
2023-05-05T09:10:43.119Z,99882.41
2023-05-05T09:13:19.199Z,99877.06
2023-05-05T09:15:47.604Z,99886.38
2023-05-05T09:18:15.793Z,99885.63
2023-05-05T09:20:43.780Z,99885.19
2023-05-05T09:23:20.610Z,99896.22
2023-05-05T09:26:05.163Z,99893.03
2023-05-05T09:28:34.305Z,99884.28
2023-05-05T09:31:16.378Z,99897.53
2023-05-05T09:33:46.251Z,99901.69
2023-05-05T09:36:14.441Z,99904.88
2023-05-05T09:38:42.658Z,99905.84
2023-05-05T09:41:10.862Z,99910.25
2023-05-05T09:43:52.570Z,99893.03
2023-05-05T09:46:21.354Z,99890.41
2023-05-05T09:48:49.506Z,99907.66
2023-05-05T09:51:29.975Z,99907.78
2023-05-05T09:53:58.476Z,99901.44
2023-05-05T09:56:41.060Z,99909.66
2023-05-05T09:59:12.670Z,99899.41
2023-05-05T10:01:43.850Z,99907.09
2023-05-05T10:04:29.857Z,99915.88
2023-05-05T10:06:59.167Z,99900.03
2023-05-05T10:09:28.224Z,99888.81
2023-05-05T10:11:58.091Z,99890.63
2023-05-05T10:14:28.044Z,99897.97
2023-05-05T10:16:57.143Z,99903.66
2023-05-05T10:19:28.641Z,99893.91
2023-05-05T10:22:03.797Z,99876.03
2023-05-05T10:24:54.569Z,99878.34
2023-05-05T10:27:26.977Z,99875.75
2023-05-05T10:30:12.297Z,99870.94
2023-05-05T10:33:09.091Z,99868.03
2023-05-05T10:35:50.091Z,99871.94
2023-05-05T10:38:20.198Z,99872.94
2023-05-05T10:40:48.976Z,99878.53
2023-05-05T10:43:18.182Z,99868.50
2023-05-05T10:45:46.874Z,99854.88
2023-05-05T10:48:43.064Z,99866.56
2023-05-05T10:51:42.915Z,99858.00
2023-05-05T10:54:38.773Z,99866.81
2023-05-05T10:57:10.759Z,99855.94
2023-05-05T10:59:38.978Z,99858.03
2023-05-05T11:02:29.222Z,99853.91
2023-05-05T11:05:21.885Z,99873.69
2023-05-05T11:07:51.972Z,99867.41
2023-05-05T11:10:23.137Z,99879.06
2023-05-05T11:12:59.628Z,99873.75
2023-05-05T11:15:30.957Z,99852.03
2023-05-05T11:18:07.035Z,99854.56
2023-05-05T11:20:37.252Z,99861.28
2023-05-05T11:23:05.618Z,99850.44
2023-05-05T11:25:37.620Z,99849.13
2023-05-05T11:28:16.773Z,99850.84
2023-05-05T11:31:20.951Z,99848.53
2023-05-05T11:33:50.124Z,99838.72
2023-05-05T11:36:20.524Z,99836.19
2023-05-05T11:39:39.541Z,99848.31
2023-05-05T11:42:26.938Z,99838.03
2023-05-05T11:44:55.749Z,99840.66
2023-05-05T11:47:26.544Z,99834.81
2023-05-05T11:49:55.711Z,99839.56
2023-05-05T11:52:30.093Z,99830.66
2023-05-05T11:55:01.956Z,99831.31
2023-05-05T11:57:31.096Z,99824.28
2023-05-05T12:00:05.757Z,99822.75
2023-05-05T12:02:35.070Z,99814.22
2023-05-05T12:05:03.721Z,99818.69
2023-05-05T12:07:33.943Z,99815.34
2023-05-05T12:10:02.452Z,99823.44
2023-05-05T12:12:40.239Z,99809.00
2023-05-05T12:15:10.060Z,99810.78
2023-05-05T12:17:45.124Z,99814.19
2023-05-05T12:20:13.814Z,99819.56
2023-05-05T12:22:42.492Z,99822.28
2023-05-05T12:25:11.245Z,99805.50
2023-05-05T12:27:40.183Z,99798.03
2023-05-05T12:30:18.246Z,99812.13
2023-05-05T12:32:47.137Z,99815.72
2023-05-05T12:35:16.214Z,99811.31
2023-05-05T12:37:45.700Z,99815.03
2023-05-05T12:40:54.122Z,99817.03
2023-05-05T12:43:34.314Z,99820.22
2023-05-05T12:46:10.387Z,99821.03
2023-05-05T12:48:41.583Z,99817.38
2023-05-05T12:51:25.729Z,99820.03
2023-05-05T12:54:12.923Z,99826.13
2023-05-05T12:56:47.544Z,99824.31
2023-05-05T12:59:24.575Z,99817.69
2023-05-05T13:01:54.534Z,99832.56
2023-05-05T13:04:28.131Z,99824.88
2023-05-05T13:07:14.871Z,99818.31
2023-05-05T13:09:43.882Z,99826.13
2023-05-05T13:12:12.628Z,99821.53
2023-05-05T13:14:42.135Z,99818.97
2023-05-05T13:17:12.072Z,99814.69
2023-05-05T13:19:46.836Z,99811.78
2023-05-05T13:22:15.649Z,99809.19
2023-05-05T13:24:51.913Z,99804.97
2023-05-05T13:27:21.450Z,99803.69
2023-05-05T13:29:49.792Z,99809.09
2023-05-05T13:32:17.658Z,99798.28
2023-05-05T13:34:45.939Z,99803.06
2023-05-05T13:37:14.217Z,99800.84
2023-05-05T13:39:42.138Z,99807.53
2023-05-05T13:42:10.458Z,99799.63
2023-05-05T13:44:38.730Z,99800.88
2023-05-05T13:47:07.037Z,99807.72
2023-05-05T13:49:36.238Z,99813.09
2023-05-05T13:52:04.581Z,99814.41
2023-05-05T13:54:33.013Z,99807.25
2023-05-05T13:57:01.451Z,99816.88
2023-05-05T13:59:30.155Z,99809.16
2023-05-05T14:01:59.032Z,99829.06
2023-05-05T14:04:27.217Z,99818.53
2023-05-05T14:06:55.107Z,99822.50
2023-05-05T14:09:23.833Z,99819.19
2023-05-05T14:11:52.373Z,99817.13
2023-05-05T14:14:20.400Z,99827.31
2023-05-05T14:16:50.139Z,99815.84
2023-05-05T14:19:18.694Z,99819.03
2023-05-05T14:21:46.854Z,99815.25
2023-05-05T14:24:15.454Z,99826.63
2023-05-05T14:26:43.830Z,99822.06
2023-05-05T14:29:12.134Z,99813.56
2023-05-05T14:31:40.234Z,99815.84
2023-05-05T14:34:08.331Z,99815.44
2023-05-05T14:36:36.348Z,99824.59
2023-05-05T14:39:04.465Z,99821.06
2023-05-05T14:41:32.892Z,99805.63
2023-05-05T14:44:01.619Z,99810.63
2023-05-05T14:46:30.580Z,99816.22
2023-05-05T14:48:59.120Z,99821.66
2023-05-05T14:51:27.135Z,99819.44
2023-05-05T14:53:55.337Z,99826.28
2023-05-05T14:56:24.569Z,99816.19
2023-05-05T14:58:53.265Z,99825.50
2023-05-05T15:01:21.345Z,99823.88
2023-05-05T15:03:49.957Z,99823.25
2023-05-05T15:06:18.210Z,99820.97
2023-05-05T15:08:46.096Z,99829.16
2023-05-05T15:11:14.264Z,99819.22
2023-05-05T15:13:42.095Z,99830.47
2023-05-05T15:16:10.697Z,99823.31
2023-05-05T15:18:38.962Z,99830.88
2023-05-05T15:21:07.096Z,99836.41
2023-05-05T15:23:35.568Z,99835.63
2023-05-05T15:26:04.683Z,99821.28
2023-05-05T15:28:32.884Z,99824.41
2023-05-05T15:31:02.272Z,99823.03
2023-05-05T15:33:31.240Z,99824.56
2023-05-05T15:35:59.706Z,99835.97
2023-05-05T15:38:29.164Z,99826.69
2023-05-05T15:40:57.659Z,99824.75
2023-05-05T15:43:25.866Z,99823.41
2023-05-05T15:45:54.834Z,99822.50
2023-05-05T15:48:23.237Z,99811.19
2023-05-05T15:50:51.426Z,99816.19
2023-05-05T15:53:19.520Z,99810.84
2023-05-05T15:55:47.847Z,99819.78
2023-05-05T15:58:15.896Z,99806.91
2023-05-05T16:00:43.936Z,99815.72
2023-05-05T16:03:12.355Z,99813.97
2023-05-05T16:05:41.974Z,99808.94
2023-05-05T16:08:11.035Z,99812.53
2023-05-05T16:10:39.513Z,99818.53
2023-05-05T16:13:07.888Z,99824.22
2023-05-05T16:15:35.949Z,99825.88
2023-05-05T16:18:05.599Z,99820.19
2023-05-05T16:20:33.741Z,99829.16
2023-05-05T16:23:01.632Z,99835.72
2023-05-05T16:25:30.404Z,99822.09
2023-05-05T16:28:00.237Z,99828.78
2023-05-05T16:30:29.365Z,99826.53
2023-05-05T16:32:58.475Z,99833.41
2023-05-05T16:35:28.055Z,99826.97
2023-05-05T16:37:56.682Z,99825.81
2023-05-05T16:40:24.985Z,99828.25
2023-05-05T16:42:53.455Z,99832.94
2023-05-05T16:45:21.777Z,99836.63
2023-05-05T16:47:50.689Z,99840.91
2023-05-05T16:50:19.286Z,99831.47
2023-05-05T16:52:47.802Z,99827.25
2023-05-05T16:55:16.604Z,99832.19
2023-05-05T16:57:44.984Z,99834.41
2023-05-05T17:00:13.908Z,99835.91
2023-05-05T17:02:42.030Z,99845.06
2023-05-05T17:05:10.837Z,99852.31
2023-05-05T17:07:39.192Z,99861.84
2023-05-05T17:10:08.684Z,99858.16
2023-05-05T17:12:36.900Z,99872.75
2023-05-05T17:15:06.368Z,99876.09
2023-05-05T17:17:34.891Z,99880.97
2023-05-05T17:20:04.752Z,99877.03
2023-05-05T17:22:34.597Z,99890.34
2023-05-05T17:25:04.484Z,99884.16
2023-05-05T17:27:33.097Z,99893.06
2023-05-05T17:30:01.443Z,99898.44
2023-05-05T17:32:30.522Z,99898.94
2023-05-05T17:34:58.780Z,99898.28
2023-05-05T17:37:27.573Z,99900.63
2023-05-05T17:39:56.260Z,99907.31
2023-05-05T17:42:27.119Z,99907.16
2023-05-05T17:44:55.466Z,99916.38
2023-05-05T17:47:24.787Z,99913.94
2023-05-05T17:49:55.344Z,99914.13
2023-05-05T17:52:24.425Z,99918.44
2023-05-05T17:54:53.040Z,99927.91
2023-05-05T17:57:21.432Z,99919.78
2023-05-05T17:59:50.604Z,99922.81
2023-05-05T18:02:19.616Z,99928.06
2023-05-05T18:04:48.099Z,99924.06
2023-05-05T18:07:16.274Z,99931.03
2023-05-05T18:09:46.385Z,99925.59
2023-05-05T18:12:14.854Z,99929.91
2023-05-05T18:14:43.440Z,99930.19
2023-05-05T18:17:12.885Z,99928.28
2023-05-05T18:19:49.135Z,99930.22
2023-05-05T18:22:18.529Z,99932.84
2023-05-05T18:24:47.440Z,99935.00
2023-05-05T18:27:15.720Z,99926.09
2023-05-05T18:29:44.123Z,99940.47
2023-05-05T18:32:12.345Z,99937.72
2023-05-05T18:34:40.800Z,99944.59
2023-05-05T18:37:09.390Z,99945.38
2023-05-05T18:39:38.487Z,99953.66
2023-05-05T18:42:08.144Z,99955.03
2023-05-05T18:44:37.195Z,99964.81
2023-05-05T18:47:05.489Z,99961.28
2023-05-05T18:49:34.051Z,99968.75
2023-05-05T18:52:03.343Z,99962.59
2023-05-05T18:54:31.878Z,99971.34
2023-05-05T18:57:00.321Z,99982.38
2023-05-05T18:59:29.235Z,99974.66
2023-05-05T19:01:57.474Z,99984.81
2023-05-05T19:04:31.392Z,99991.78
2023-05-05T19:07:00.641Z,99988.41
2023-05-05T19:09:29.210Z,99987.41
2023-05-05T19:11:57.778Z,99999.94
2023-05-05T19:14:26.348Z,99996.88
2023-05-05T19:16:56.143Z,99994.50
2023-05-05T19:19:26.003Z,100005.34
2023-05-05T19:21:55.255Z,99998.19
2023-05-05T19:24:23.458Z,99992.72
2023-05-05T19:26:51.901Z,99993.47
2023-05-05T19:29:20.358Z,99995.84
2023-05-05T19:31:49.599Z,99996.97
2023-05-05T19:34:17.915Z,100003.44
2023-05-05T19:36:46.596Z,99997.84
2023-05-05T19:39:18.780Z,100003.44
2023-05-05T19:41:47.331Z,100001.34
2023-05-05T19:44:16.581Z,100007.13
2023-05-05T19:46:45.011Z,100004.44
2023-05-05T19:49:13.242Z,99998.69
2023-05-05T19:51:42.337Z,100000.09
2023-05-05T19:54:11.197Z,99998.09
2023-05-05T19:56:40.698Z,100002.72
2023-05-05T19:59:09.342Z,100003.72
2023-05-05T20:01:37.510Z,100005.94
2023-05-05T20:04:06.260Z,100003.13
2023-05-05T20:06:35.223Z,100005.22
2023-05-05T20:09:05.566Z,100000.59
2023-05-05T20:11:34.234Z,100002.97
2023-05-05T20:14:05.384Z,100006.56
2023-05-05T20:16:34.752Z,100003.38
2023-05-05T20:19:03.106Z,100002.00
2023-05-05T20:21:31.273Z,100002.25
2023-05-05T20:24:00.419Z,100003.38
2023-05-05T20:26:28.949Z,100004.81
2023-05-05T20:28:57.332Z,100007.72
2023-05-05T20:31:25.647Z,100004.91
2023-05-05T20:33:54.236Z,100002.66
2023-05-05T20:36:23.004Z,100001.66
2023-05-05T20:38:52.000Z,100001.94
2023-05-05T20:41:20.452Z,100003.47
2023-05-05T20:43:49.649Z,100011.66
2023-05-05T20:46:17.920Z,100008.88
2023-05-05T20:48:46.748Z,100009.78
2023-05-05T20:51:14.739Z,100011.75
2023-05-05T20:53:42.960Z,100003.41
2023-05-05T20:56:11.470Z,100008.59
2023-05-05T20:58:39.888Z,100005.63
2023-05-05T21:01:09.386Z,100007.84
2023-05-05T21:03:37.696Z,100007.25
2023-05-05T21:06:06.343Z,100000.78
2023-05-05T21:08:34.408Z,100005.66
2023-05-05T21:11:03.177Z,100003.25
2023-05-05T21:13:32.301Z,100001.69
2023-05-05T21:16:00.665Z,99999.88
2023-05-05T21:18:29.125Z,100010.88
2023-05-05T21:20:57.096Z,100006.69
2023-05-05T21:23:25.362Z,100003.81
2023-05-05T21:25:53.763Z,100011.59
2023-05-05T21:28:21.886Z,100011.16
2023-05-05T21:33:24.900Z,100007.38
2023-05-05T21:35:53.295Z,100015.81
2023-05-05T21:38:21.443Z,100017.63
2023-05-05T21:40:50.883Z,100016.31
2023-05-05T21:43:19.232Z,100019.50
2023-05-05T21:45:47.216Z,100018.44
2023-05-05T21:48:15.403Z,100022.03
2023-05-05T21:50:43.383Z,100018.66
2023-05-05T21:53:11.321Z,100020.63
2023-05-05T21:55:39.526Z,100026.09
2023-05-05T21:58:07.660Z,100032.00
2023-05-05T22:00:35.807Z,100029.34
2023-05-05T22:03:04.898Z,100026.31
2023-05-05T22:05:32.965Z,100035.97
2023-05-05T22:08:00.957Z,100037.06
2023-05-05T22:10:29.310Z,100039.97
2023-05-05T22:12:58.243Z,100032.34
2023-05-05T22:15:30.029Z,100032.25
2023-05-05T22:18:01.186Z,100030.69
2023-05-05T22:20:32.560Z,100028.41
2023-05-05T22:23:00.941Z,100031.41
2023-05-05T22:25:29.202Z,100024.56
2023-05-05T22:27:57.796Z,100030.47
2023-05-05T22:30:27.605Z,100023.97
2023-05-05T22:32:55.717Z,100021.44
2023-05-05T22:35:23.889Z,100017.22
2023-05-05T22:37:52.011Z,100013.22
2023-05-05T22:40:20.180Z,100013.38
2023-05-05T22:42:48.206Z,100011.44
2023-05-05T22:45:16.690Z,100006.97
2023-05-05T22:47:44.861Z,100012.75
2023-05-05T22:50:12.999Z,100003.84
2023-05-05T22:52:41.169Z,100006.63
2023-05-05T22:55:09.840Z,100005.41
2023-05-05T22:57:38.171Z,99996.72
2023-05-05T23:00:11.123Z,100001.44
2023-05-05T23:02:39.974Z,100005.78
2023-05-05T23:05:08.676Z,99996.59
2023-05-05T23:07:37.092Z,99999.75
2023-05-05T23:10:06.067Z,99996.50
2023-05-05T23:12:34.239Z,100000.34
2023-05-05T23:15:02.516Z,99992.91
2023-05-05T23:17:30.518Z,99998.22
2023-05-05T23:19:58.833Z,100003.53
2023-05-05T23:22:26.915Z,99998.34
2023-05-05T23:24:54.796Z,99997.84
2023-05-05T23:27:23.863Z,99997.22
2023-05-05T23:29:51.839Z,99995.78
2023-05-05T23:32:20.163Z,99994.56
2023-05-05T23:34:48.365Z,99996.28
2023-05-05T23:37:16.337Z,99994.44
2023-05-05T23:39:44.219Z,99996.75
2023-05-05T23:42:12.274Z,99996.28
2023-05-05T23:44:40.490Z,99986.03
2023-05-05T23:47:08.370Z,99998.69
2023-05-05T23:49:36.797Z,99986.50
2023-05-05T23:52:05.065Z,99997.09
2023-05-05T23:54:32.963Z,99994.34
2023-05-05T23:57:02.363Z,99990.88
2023-05-05T23:59:30.878Z,99991.94
